Time;durP1;ratioP1;P1;durP2;ratioP2;P2;SDS_P1;SDS_P2;PMS_P1;PMS_P2;Temp;Humidity;BMP_temperature;BMP_pressure;BME280_temperature;BME280_humidity;BME280_pressure;Samples;Min_cycle;Max_cycle;Signal;HPM_P1;HPM_P2
2021/12/20 00:02:17;;;;;;;31.87;25.20;;;;;;;;;;5016005;28;20037;-64
2021/12/20 00:04:46;;;;;;;31.97;24.07;;;;;;;;;;5013051;28;20026;-63
2021/12/20 00:07:12;;;;;;;29.10;23.10;;;;;;;;;;5013094;28;20033;-63
2021/12/20 00:09:38;;;;;;;29.10;23.47;;;;;;;;;;5008687;28;20025;-63
2021/12/20 00:12:04;;;;;;;28.70;22.57;;;;;;;;;;5008931;28;20049;-62
2021/12/20 00:14:30;;;;;;;27.23;23.00;;;;;;;;;;5014195;28;20030;-62
2021/12/20 00:16:56;;;;;;;28.53;22.87;;;;;;;;;;5012334;28;20037;-62
2021/12/20 00:19:23;;;;;;;29.80;23.20;;;;;;;;;;4995275;28;20056;-63
2021/12/20 00:21:49;;;;;;;29.77;23.60;;;;;;;;;;5012722;28;20026;-62
2021/12/20 00:24:15;;;;;;;31.77;24.87;;;;;;;;;;5012019;28;20788;-62
2021/12/20 00:26:41;;;;;;;31.47;24.93;;;;;;;;;;4999449;28;20469;-62
2021/12/20 00:29:07;;;;;;;30.27;24.20;;;;;;;;;;5013562;28;20029;-63
2021/12/20 00:31:45;;;;;;;32.43;25.83;;;;;;;;;;5011113;28;20041;-62
2021/12/20 00:34:11;;;;;;;37.67;26.40;;;;;;;;;;5008276;28;20033;-62
2021/12/20 00:36:37;;;;;;;36.97;27.73;;;;;;;;;;5014228;28;20026;-62
2021/12/20 00:41:49;;;;;;;37.85;28.80;;;;;;;;;;5012781;28;20045;-62
2021/12/20 00:44:15;;;;;;;37.30;29.03;;;;;;;;;;5010914;28;20034;-62
2021/12/20 00:46:41;;;;;;;42.90;31.33;;;;;;;;;;5014224;28;20395;-62
2021/12/20 00:49:07;;;;;;;42.77;31.00;;;;;;;;;;5011727;28;20513;-62
2021/12/20 00:51:33;;;;;;;45.63;31.80;;;;;;;;;;5010919;28;20025;-62
2021/12/20 00:53:59;;;;;;;47.67;33.37;;;;;;;;;;5011986;28;20021;-63
2021/12/20 00:56:25;;;;;;;47.60;32.87;;;;;;;;;;5012908;28;20034;-62
2021/12/20 00:58:51;;;;;;;42.60;32.17;;;;;;;;;;5010443;28;20026;-63
2021/12/20 01:01:17;;;;;;;47.53;33.63;;;;;;;;;;5012389;28;20040;-63
2021/12/20 01:03:43;;;;;;;51.50;37.17;;;;;;;;;;5010478;28;20056;-63
2021/12/20 01:06:09;;;;;;;55.30;37.23;;;;;;;;;;5010885;28;20030;-62
2021/12/20 01:08:38;;;;;;;51.73;37.53;;;;;;;;;;5009783;28;20026;-63
2021/12/20 01:11:05;;;;;;;50.90;35.87;;;;;;;;;;5013302;28;20026;-62
2021/12/20 01:13:33;;;;;;;58.60;38.80;;;;;;;;;;5012945;28;20052;-63
2021/12/20 01:16:02;;;;;;;58.80;38.13;;;;;;;;;;5014520;28;20076;-63
2021/12/20 01:18:28;;;;;;;55.33;37.57;;;;;;;;;;5005806;28;22374;-63
2021/12/20 01:20:54;;;;;;;50.87;37.50;;;;;;;;;;5004265;28;20065;-63
2021/12/20 01:23:20;;;;;;;50.87;37.33;;;;;;;;;;5013130;28;20064;-63
2021/12/20 01:25:46;;;;;;;54.63;38.43;;;;;;;;;;5008863;28;20464;-63
2021/12/20 01:28:12;;;;;;;50.67;35.97;;;;;;;;;;5012083;28;20030;-63
2021/12/20 01:30:39;;;;;;;53.90;36.97;;;;;;;;;;5009584;28;20784;-63
2021/12/20 01:33:11;;;;;;;53.40;36.70;;;;;;;;;;5011254;28;20037;-63
2021/12/20 01:35:37;;;;;;;47.00;34.33;;;;;;;;;;5011274;28;20068;-63
2021/12/20 01:38:03;;;;;;;49.60;34.77;;;;;;;;;;5011860;28;20109;-63
2021/12/20 01:40:29;;;;;;;51.20;35.93;;;;;;;;;;5007385;28;20137;-63
2021/12/20 01:42:57;;;;;;;51.83;35.93;;;;;;;;;;5011690;28;20028;-63
2021/12/20 01:45:24;;;;;;;54.20;36.97;;;;;;;;;;5010367;28;20041;-63
2021/12/20 01:48:00;;;;;;;48.37;35.33;;;;;;;;;;5009052;28;20034;-63
2021/12/20 01:50:49;;;;;;;47.03;34.77;;;;;;;;;;5008403;28;20033;-63
2021/12/20 01:53:17;;;;;;;47.83;35.77;;;;;;;;;;5012332;28;20412;-63
2021/12/20 01:55:43;;;;;;;49.67;36.27;;;;;;;;;;5011021;28;20026;-63
2021/12/20 01:58:09;;;;;;;48.37;33.83;;;;;;;;;;5010252;28;20041;-63
2021/12/20 02:00:37;;;;;;;53.40;34.83;;;;;;;;;;5010387;28;20030;-63
2021/12/20 02:03:03;;;;;;;48.27;35.33;;;;;;;;;;4994556;28;20029;-63
2021/12/20 02:05:55;;;;;;;48.27;34.27;;;;;;;;;;5009235;28;20438;-63
2021/12/20 02:10:47;;;;;;;50.80;35.67;;;;;;;;;;5010195;28;20099;-62
2021/12/20 02:13:14;;;;;;;50.60;34.23;;;;;;;;;;5009734;28;20057;-63
2021/12/20 02:15:40;;;;;;;53.87;37.83;;;;;;;;;;5008734;28;20022;-63
2021/12/20 02:18:06;;;;;;;54.17;37.80;;;;;;;;;;5012531;28;20061;-63
2021/12/20 02:20:33;;;;;;;60.27;37.73;;;;;;;;;;5011586;28;20037;-63
2021/12/20 02:23:00;;;;;;;55.67;37.83;;;;;;;;;;5014207;28;20037;-63
2021/12/20 02:25:27;;;;;;;51.43;37.63;;;;;;;;;;5009186;28;20058;-63
2021/12/20 02:27:53;;;;;;;55.30;37.90;;;;;;;;;;5011211;28;20045;-63
2021/12/20 02:36:55;;;;;;;51.63;36.37;;;;;;;;;;5010350;28;20034;-63
2021/12/20 02:38:41;;;;;;;47.33;33.72;;;;;;;;;;5008478;28;20494;-63
2021/12/20 02:41:12;;;;;;;55.73;37.10;;;;;;;;;;5012523;28;20076;-64
2021/12/20 02:43:41;;;;;;;46.80;33.83;;;;;;;;;;5008742;28;20022;-63
2021/12/20 02:46:26;;;;;;;50.87;34.47;;;;;;;;;;5009839;28;20399;-63
2021/12/20 02:48:52;;;;;;;47.65;34.67;;;;;;;;;;5010368;28;20402;-63
2021/12/20 02:51:18;;;;;;;51.87;33.20;;;;;;;;;;5010337;28;20102;-64
2021/12/20 02:53:44;;;;;;;43.17;31.13;;;;;;;;;;5010730;28;20030;-63
2021/12/20 02:56:10;;;;;;;44.60;31.43;;;;;;;;;;5012669;28;20099;-63
2021/12/20 02:58:36;;;;;;;49.23;32.13;;;;;;;;;;5010737;28;20526;-63
2021/12/20 03:01:02;;;;;;;45.13;32.53;;;;;;;;;;5009629;28;20026;-63
2021/12/20 03:03:28;;;;;;;45.03;32.33;;;;;;;;;;5009125;28;20026;-63
2021/12/20 03:05:54;;;;;;;41.77;30.97;;;;;;;;;;5009308;28;20358;-63
2021/12/20 03:08:24;;;;;;;44.17;31.53;;;;;;;;;;5010672;28;20026;-63
2021/12/20 03:10:50;;;;;;;46.70;32.13;;;;;;;;;;4994374;28;20022;-63
2021/12/20 03:13:16;;;;;;;44.33;33.03;;;;;;;;;;5010824;28;20029;-63
2021/12/20 03:15:42;;;;;;;51.60;33.07;;;;;;;;;;4993062;28;20068;-63
2021/12/20 03:18:08;;;;;;;47.00;33.00;;;;;;;;;;4999528;28;20036;-63
2021/12/20 03:20:34;;;;;;;48.53;32.60;;;;;;;;;;5010404;28;20112;-63
2021/12/20 03:23:00;;;;;;;49.43;32.10;;;;;;;;;;5010632;28;20029;-63
2021/12/20 03:25:26;;;;;;;48.40;34.37;;;;;;;;;;5010655;28;20037;-63
2021/12/20 03:27:52;;;;;;;44.87;32.03;;;;;;;;;;5007535;28;20053;-63
2021/12/20 03:30:19;;;;;;;45.80;32.13;;;;;;;;;;5009692;28;20037;-63
2021/12/20 03:32:45;;;;;;;46.57;32.23;;;;;;;;;;5009485;28;20061;-63
2021/12/20 03:35:11;;;;;;;39.80;29.83;;;;;;;;;;5011858;28;20088;-63
2021/12/20 03:37:37;;;;;;;43.50;29.40;;;;;;;;;;5011657;28;20029;-63
2021/12/20 03:40:03;;;;;;;43.20;29.00;;;;;;;;;;5007169;28;20061;-63
2021/12/20 03:42:31;;;;;;;44.77;29.90;;;;;;;;;;5012960;28;20037;-63
2021/12/20 03:44:57;;;;;;;42.57;29.13;;;;;;;;;;5008435;28;20500;-63
2021/12/20 03:47:23;;;;;;;42.57;29.10;;;;;;;;;;5007997;28;20042;-63
2021/12/20 03:49:49;;;;;;;41.20;28.33;;;;;;;;;;5008350;28;20494;-63
2021/12/20 03:52:15;;;;;;;41.37;28.10;;;;;;;;;;5008206;28;20038;-63
2021/12/20 03:54:41;;;;;;;36.40;26.30;;;;;;;;;;5011191;28;20030;-63
2021/12/20 03:57:07;;;;;;;35.77;26.40;;;;;;;;;;5011102;28;20036;-63
2021/12/20 03:59:33;;;;;;;39.90;26.93;;;;;;;;;;5009059;28;20026;-63
2021/12/20 04:02:00;;;;;;;39.13;26.00;;;;;;;;;;5008946;28;20034;-63
2021/12/20 04:04:26;;;;;;;36.70;24.63;;;;;;;;;;5005203;28;20034;-64
2021/12/20 04:06:52;;;;;;;40.47;26.70;;;;;;;;;;5009745;28;20060;-63
2021/12/20 04:09:18;;;;;;;34.43;24.43;;;;;;;;;;4994922;28;20026;-63
2021/12/20 04:11:44;;;;;;;36.87;24.53;;;;;;;;;;5006025;28;20053;-62
2021/12/20 04:14:10;;;;;;;39.07;24.70;;;;;;;;;;5010635;28;20026;-63
2021/12/20 04:16:36;;;;;;;34.70;24.83;;;;;;;;;;5008563;28;20025;-63
2021/12/20 04:19:03;;;;;;;37.57;24.97;;;;;;;;;;5010021;28;20037;-63
2021/12/20 04:21:30;;;;;;;33.33;22.77;;;;;;;;;;5010521;28;20434;-63
2021/12/20 04:23:56;;;;;;;37.23;24.67;;;;;;;;;;5008572;28;20383;-63
2021/12/20 04:26:22;;;;;;;36.47;24.90;;;;;;;;;;5008991;28;20039;-62
2021/12/20 04:28:48;;;;;;;36.83;23.97;;;;;;;;;;5010860;28;20101;-63
2021/12/20 04:31:15;;;;;;;32.30;22.33;;;;;;;;;;5011391;28;20033;-62
2021/12/20 04:33:41;;;;;;;31.13;20.90;;;;;;;;;;5006304;28;20364;-62
2021/12/20 04:36:07;;;;;;;27.63;20.23;;;;;;;;;;5009224;28;20038;-63
2021/12/20 04:38:33;;;;;;;34.87;23.03;;;;;;;;;;5013072;28;20483;-63
2021/12/20 04:41:00;;;;;;;32.53;21.90;;;;;;;;;;5013671;28;20061;-63
2021/12/20 04:43:26;;;;;;;33.77;21.60;;;;;;;;;;5013785;28;20534;-63
2021/12/20 04:45:52;;;;;;;32.43;21.37;;;;;;;;;;4998361;28;20038;-63
2021/12/20 04:48:18;;;;;;;26.83;20.50;;;;;;;;;;5013519;28;20034;-63
2021/12/20 04:50:44;;;;;;;29.33;20.87;;;;;;;;;;5012158;28;20190;-62
2021/12/20 04:53:10;;;;;;;29.27;21.13;;;;;;;;;;5010413;28;20034;-62
2021/12/20 04:55:36;;;;;;;29.97;21.27;;;;;;;;;;5007957;28;20108;-63
2021/12/20 04:58:05;;;;;;;29.23;19.70;;;;;;;;;;5012415;28;20076;-63
2021/12/20 05:00:33;;;;;;;31.93;22.43;;;;;;;;;;5013262;28;20105;-63
2021/12/20 05:03:00;;;;;;;34.43;21.30;;;;;;;;;;5011935;28;20022;-63
2021/12/20 05:05:28;;;;;;;30.17;20.87;;;;;;;;;;5013276;28;20026;-63
2021/12/20 05:07:54;;;;;;;26.27;19.83;;;;;;;;;;5012159;28;20164;-63
2021/12/20 05:10:29;;;;;;;32.33;20.70;;;;;;;;;;5014057;28;20071;-63
2021/12/20 05:12:56;;;;;;;35.25;22.15;;;;;;;;;;5010479;28;20034;-63
2021/12/20 05:15:23;;;;;;;32.10;21.47;;;;;;;;;;5013550;28;20069;-63
2021/12/20 05:17:50;;;;;;;31.47;21.20;;;;;;;;;;5012871;28;20026;-63
2021/12/20 05:20:16;;;;;;;31.30;22.13;;;;;;;;;;5010324;28;20034;-63
2021/12/20 05:22:42;;;;;;;32.17;21.47;;;;;;;;;;5013674;28;20108;-63
2021/12/20 05:25:08;;;;;;;30.73;21.97;;;;;;;;;;5011866;28;20120;-63
2021/12/20 05:27:34;;;;;;;31.17;20.43;;;;;;;;;;5010870;28;20119;-63
2021/12/20 05:30:00;;;;;;;31.67;22.17;;;;;;;;;;5012907;28;20022;-63
2021/12/20 05:32:27;;;;;;;28.23;20.57;;;;;;;;;;5001751;28;20449;-63
2021/12/20 05:34:53;;;;;;;31.67;20.87;;;;;;;;;;5007879;28;20464;-63
2021/12/20 05:37:19;;;;;;;31.73;21.97;;;;;;;;;;5009311;28;20049;-63
2021/12/20 05:39:45;;;;;;;29.00;21.27;;;;;;;;;;5009319;28;20030;-63
2021/12/20 05:42:11;;;;;;;32.13;20.17;;;;;;;;;;5009874;28;20028;-63
2021/12/20 05:44:37;;;;;;;32.53;20.33;;;;;;;;;;5011403;28;20038;-63
2021/12/20 05:47:03;;;;;;;28.80;20.13;;;;;;;;;;4994682;28;20042;-63
2021/12/20 05:49:31;;;;;;;30.93;20.13;;;;;;;;;;5010399;28;20072;-63
2021/12/20 05:51:57;;;;;;;29.93;19.80;;;;;;;;;;5011916;28;20038;-63
2021/12/20 05:54:23;;;;;;;27.70;19.67;;;;;;;;;;5013800;28;20065;-63
2021/12/20 05:56:49;;;;;;;29.20;19.00;;;;;;;;;;5012266;28;20064;-63
2021/12/20 05:59:15;;;;;;;34.33;19.57;;;;;;;;;;5012878;28;20030;-63
2021/12/20 06:01:41;;;;;;;29.40;20.00;;;;;;;;;;5011342;28;20087;-63
2021/12/20 06:04:07;;;;;;;25.27;18.10;;;;;;;;;;5011556;28;20029;-63
2021/12/20 06:06:33;;;;;;;26.77;18.57;;;;;;;;;;5012388;28;20104;-63
2021/12/20 06:08:59;;;;;;;28.73;19.90;;;;;;;;;;5010716;28;20041;-63
2021/12/20 06:11:26;;;;;;;26.57;18.47;;;;;;;;;;5008383;28;20423;-63
2021/12/20 06:13:52;;;;;;;25.80;18.50;;;;;;;;;;4996054;28;20080;-63
2021/12/20 06:16:18;;;;;;;31.50;19.50;;;;;;;;;;5005965;28;20030;-63
2021/12/20 06:18:44;;;;;;;25.87;18.83;;;;;;;;;;5010264;28;20103;-63
2021/12/20 06:21:11;;;;;;;25.23;19.03;;;;;;;;;;5009307;28;20498;-63
2021/12/20 06:23:37;;;;;;;30.23;19.80;;;;;;;;;;5012567;28;20434;-63
2021/12/20 06:26:03;;;;;;;30.10;19.43;;;;;;;;;;5010362;28;20451;-63
2021/12/20 06:28:30;;;;;;;31.27;19.93;;;;;;;;;;5011474;28;20759;-63
2021/12/20 06:30:56;;;;;;;25.73;18.53;;;;;;;;;;5009575;28;20035;-63
2021/12/20 06:33:22;;;;;;;27.13;18.53;;;;;;;;;;5010004;28;20037;-63
2021/12/20 06:35:54;;;;;;;26.67;18.40;;;;;;;;;;5008639;28;20026;-63
2021/12/20 06:38:22;;;;;;;30.97;20.50;;;;;;;;;;5009497;28;20026;-63
2021/12/20 06:40:49;;;;;;;32.00;19.67;;;;;;;;;;5011330;28;20037;-63
2021/12/20 06:43:16;;;;;;;27.67;18.80;;;;;;;;;;5012705;28;20491;-62
2021/12/20 06:45:42;;;;;;;28.13;18.97;;;;;;;;;;5008222;28;20030;-63
2021/12/20 06:48:08;;;;;;;32.53;18.83;;;;;;;;;;5008316;28;20112;-63
2021/12/20 06:50:35;;;;;;;26.87;18.87;;;;;;;;;;5008289;28;20022;-63
2021/12/20 06:53:01;;;;;;;27.70;18.50;;;;;;;;;;5013288;28;20372;-62
2021/12/20 06:55:27;;;;;;;27.57;18.17;;;;;;;;;;5010626;28;20423;-62
2021/12/20 06:58:02;;;;;;;30.03;19.03;;;;;;;;;;5012022;28;20026;-63
2021/12/20 07:00:28;;;;;;;28.27;18.80;;;;;;;;;;5004560;28;21695;-63
2021/12/20 07:02:55;;;;;;;33.77;19.83;;;;;;;;;;5009421;28;20105;-63
2021/12/20 07:05:21;;;;;;;28.97;18.93;;;;;;;;;;5011796;28;20036;-62
2021/12/20 07:07:47;;;;;;;29.50;19.10;;;;;;;;;;5009712;28;20044;-63
2021/12/20 07:10:13;;;;;;;27.07;18.17;;;;;;;;;;5007855;28;20030;-62
2021/12/20 07:12:39;;;;;;;27.67;17.40;;;;;;;;;;5011315;28;20037;-62
2021/12/20 07:15:09;;;;;;;29.43;19.40;;;;;;;;;;5009426;28;20032;-62
2021/12/20 07:17:35;;;;;;;26.47;18.60;;;;;;;;;;4991787;28;20030;-62
2021/12/20 07:20:01;;;;;;;27.67;18.27;;;;;;;;;;4998135;28;20387;-62
2021/12/20 07:22:27;;;;;;;25.20;17.70;;;;;;;;;;5009446;28;20041;-62
2021/12/20 07:27:57;;;;;;;29.37;17.43;;;;;;;;;;5007111;28;20045;-62
2021/12/20 07:30:23;;;;;;;26.33;18.00;;;;;;;;;;5008232;28;20551;-63
2021/12/20 07:32:50;;;;;;;26.77;17.90;;;;;;;;;;5008029;28;20467;-63
2021/12/20 07:35:16;;;;;;;29.17;17.73;;;;;;;;;;5008932;28;20380;-63
2021/12/20 07:37:43;;;;;;;26.80;18.03;;;;;;;;;;5007143;28;20049;-63
2021/12/20 07:40:09;;;;;;;25.13;18.13;;;;;;;;;;5009315;28;20137;-63
2021/12/20 07:42:35;;;;;;;25.33;17.63;;;;;;;;;;5011952;28;20034;-63
2021/12/20 07:45:01;;;;;;;24.07;17.87;;;;;;;;;;4992873;28;20028;-63
2021/12/20 07:47:27;;;;;;;27.60;18.07;;;;;;;;;;4991056;28;20046;-63
2021/12/20 07:49:53;;;;;;;25.73;17.60;;;;;;;;;;5006257;28;20479;-63
2021/12/20 07:52:20;;;;;;;28.10;17.43;;;;;;;;;;5007815;28;20037;-62
2021/12/20 07:54:46;;;;;;;44.80;19.60;;;;;;;;;;4998603;28;20059;-63
2021/12/20 07:57:12;;;;;;;25.83;18.30;;;;;;;;;;5008880;28;20108;-63
2021/12/20 07:59:38;;;;;;;26.93;18.03;;;;;;;;;;5006227;28;20113;-63
2021/12/20 08:02:04;;;;;;;30.03;18.57;;;;;;;;;;5004202;28;20113;-62
2021/12/20 08:04:31;;;;;;;25.90;17.43;;;;;;;;;;5000430;28;20674;-63
2021/12/20 08:06:57;;;;;;;29.37;18.60;;;;;;;;;;5004066;28;20046;-63
2021/12/20 08:09:23;;;;;;;29.13;18.27;;;;;;;;;;5004818;28;20121;-63
2021/12/20 08:11:49;;;;;;;28.50;17.87;;;;;;;;;;5009063;28;20050;-63
2021/12/20 08:14:15;;;;;;;29.57;19.03;;;;;;;;;;5008996;28;20372;-63
2021/12/20 08:16:41;;;;;;;26.60;17.17;;;;;;;;;;5013449;28;20084;-63
2021/12/20 08:19:07;;;;;;;28.13;18.30;;;;;;;;;;5009024;28;20030;-63
2021/12/20 08:21:33;;;;;;;29.47;18.73;;;;;;;;;;5011395;28;20149;-63
2021/12/20 08:23:59;;;;;;;31.70;19.47;;;;;;;;;;5015332;28;20126;-63
2021/12/20 08:26:26;;;;;;;28.97;20.23;;;;;;;;;;5006549;28;20038;-63
2021/12/20 08:28:53;;;;;;;29.67;20.10;;;;;;;;;;5010036;28;20503;-63
2021/12/20 08:31:19;;;;;;;28.93;19.30;;;;;;;;;;5006450;28;20212;-63
2021/12/20 08:33:45;;;;;;;29.40;19.63;;;;;;;;;;5009604;28;20080;-63
2021/12/20 08:36:12;;;;;;;29.13;20.23;;;;;;;;;;5012387;28;20386;-63
2021/12/20 08:38:39;;;;;;;29.67;20.30;;;;;;;;;;5011839;28;20037;-63
2021/12/20 08:41:05;;;;;;;29.60;20.87;;;;;;;;;;5011674;28;20128;-63
2021/12/20 08:43:31;;;;;;;26.60;19.57;;;;;;;;;;5004427;28;20033;-63
2021/12/20 08:45:59;;;;;;;30.73;20.03;;;;;;;;;;5015359;28;20036;-63
2021/12/20 08:48:26;;;;;;;30.20;21.20;;;;;;;;;;5008307;28;20450;-63
2021/12/20 08:50:52;;;;;;;35.43;22.67;;;;;;;;;;5014840;28;20030;-63
2021/12/20 08:53:18;;;;;;;31.70;19.57;;;;;;;;;;5009411;28;20096;-63
2021/12/20 08:55:44;;;;;;;31.00;19.73;;;;;;;;;;5012923;28;20030;-64
2021/12/20 08:58:12;;;;;;;26.80;19.37;;;;;;;;;;4992834;28;20475;-64
2021/12/20 09:00:38;;;;;;;28.70;19.63;;;;;;;;;;5014696;28;20056;-63
2021/12/20 09:03:05;;;;;;;29.60;19.83;;;;;;;;;;5013451;28;20022;-63
2021/12/20 09:05:32;;;;;;;30.00;19.20;;;;;;;;;;5014505;28;20446;-63
2021/12/20 09:08:00;;;;;;;25.93;18.57;;;;;;;;;;5008344;28;20549;-63
2021/12/20 09:10:26;;;;;;;29.90;18.90;;;;;;;;;;5007351;28;20018;-64
2021/12/20 09:12:53;;;;;;;25.90;17.77;;;;;;;;;;5013237;28;20054;-63
2021/12/20 09:15:19;;;;;;;27.63;17.93;;;;;;;;;;5014010;28;20026;-64
2021/12/20 09:17:45;;;;;;;28.77;17.67;;;;;;;;;;5012957;28;20060;-63
2021/12/20 09:20:12;;;;;;;27.37;18.63;;;;;;;;;;5013436;28;20087;-63
2021/12/20 09:22:49;;;;;;;26.30;16.67;;;;;;;;;;5013641;28;20402;-63
2021/12/20 09:25:15;;;;;;;27.97;17.40;;;;;;;;;;5009511;28;20080;-63
2021/12/20 09:27:41;;;;;;;28.63;17.87;;;;;;;;;;5011535;28;20124;-64
2021/12/20 09:30:07;;;;;;;27.53;17.47;;;;;;;;;;5007409;28;20097;-63
2021/12/20 09:32:33;;;;;;;27.33;17.60;;;;;;;;;;5009117;28;20041;-64
2021/12/20 09:34:59;;;;;;;32.87;18.30;;;;;;;;;;5013092;28;20034;-63
2021/12/20 09:37:25;;;;;;;23.07;16.77;;;;;;;;;;5013628;28;20403;-63
2021/12/20 09:39:54;;;;;;;27.37;17.23;;;;;;;;;;5010734;28;20483;-63
2021/12/20 09:42:21;;;;;;;23.63;16.83;;;;;;;;;;5013610;28;20033;-63
2021/12/20 09:44:48;;;;;;;24.37;17.17;;;;;;;;;;5010094;28;20414;-63
2021/12/20 09:47:14;;;;;;;27.13;18.03;;;;;;;;;;5012272;28;20065;-63
2021/12/20 09:49:40;;;;;;;29.80;19.60;;;;;;;;;;5010926;28;20040;-63
2021/12/20 09:52:06;;;;;;;26.97;18.40;;;;;;;;;;5010950;28;20037;-63
2021/12/20 09:54:32;;;;;;;33.13;19.17;;;;;;;;;;5009511;28;20034;-63
2021/12/20 09:56:59;;;;;;;30.60;21.00;;;;;;;;;;5009914;28;20048;-63
2021/12/20 10:02:29;;;;;;;26.53;16.67;;;;;;;;;;5007521;28;20498;-63
2021/12/20 10:04:55;;;;;;;25.70;18.63;;;;;;;;;;4993576;28;20030;-63
2021/12/20 10:07:24;;;;;;;25.23;18.60;;;;;;;;;;5008512;28;20164;-63
2021/12/20 10:09:50;;;;;;;25.80;18.23;;;;;;;;;;4990925;28;20048;-62
2021/12/20 10:12:16;;;;;;;27.87;18.50;;;;;;;;;;5008159;28;20108;-63
2021/12/20 10:14:52;;;;;;;24.63;17.20;;;;;;;;;;4997871;28;20026;-63
2021/12/20 10:17:18;;;;;;;28.33;18.53;;;;;;;;;;5012809;28;20040;-63
2021/12/20 10:19:44;;;;;;;23.50;17.93;;;;;;;;;;5005412;28;20026;-63
2021/12/20 10:22:29;;;;;;;23.53;17.87;;;;;;;;;;5009616;28;20018;-64
2021/12/20 10:24:57;;;;;;;28.17;17.23;;;;;;;;;;5010087;28;20022;-63
2021/12/20 10:27:36;;;;;;;24.60;17.27;;;;;;;;;;5004312;28;20522;-63
2021/12/20 10:30:20;;;;;;;27.40;16.80;;;;;;;;;;5009766;28;20029;-63
2021/12/20 10:32:46;;;;;;;23.33;17.57;;;;;;;;;;5011203;28;20033;-63
2021/12/20 10:35:27;;;;;;;22.83;17.20;;;;;;;;;;5007998;28;20156;-63
2021/12/20 10:37:58;;;;;;;21.43;16.50;;;;;;;;;;5010146;28;20124;-63
2021/12/20 10:40:24;;;;;;;22.07;15.63;;;;;;;;;;5009337;28;20026;-63
2021/12/20 10:42:53;;;;;;;19.00;15.37;;;;;;;;;;5008468;28;20474;-62
2021/12/20 10:45:21;;;;;;;22.73;16.67;;;;;;;;;;5003502;28;20032;-62
2021/12/20 10:47:48;;;;;;;25.27;15.87;;;;;;;;;;5007969;28;20050;-62
2021/12/20 10:50:20;;;;;;;17.70;14.60;;;;;;;;;;5009289;28;20033;-62
2021/12/20 10:52:46;;;;;;;24.77;16.67;;;;;;;;;;5008449;28;20646;-62
2021/12/20 10:55:12;;;;;;;21.33;14.57;;;;;;;;;;5007883;28;20026;-62
2021/12/20 10:58:07;;;;;;;19.53;15.07;;;;;;;;;;5004378;28;20018;-63
2021/12/20 11:00:33;;;;;;;19.20;14.43;;;;;;;;;;5008776;28;20033;-63
2021/12/20 11:05:58;;;;;;;16.43;14.17;;;;;;;;;;5008487;28;20129;-63
2021/12/20 11:11:13;;;;;;;19.90;14.38;;;;;;;;;;5006808;28;20096;-63
2021/12/20 11:13:40;;;;;;;19.90;14.30;;;;;;;;;;5012101;28;20096;-63
2021/12/20 11:16:41;;;;;;;30.80;21.97;;;;;;;;;;5005983;28;20140;-63
2021/12/20 11:19:07;;;;;;;18.17;13.07;;;;;;;;;;4933563;29;20028;-63
2021/12/20 11:21:34;;;;;;;19.40;14.00;;;;;;;;;;4975122;28;22604;-63
2021/12/20 11:24:00;;;;;;;21.30;15.40;;;;;;;;;;5008928;28;20080;-63
2021/12/20 11:26:27;;;;;;;17.03;14.50;;;;;;;;;;5007182;28;20088;-64
2021/12/20 11:28:57;;;;;;;17.83;13.33;;;;;;;;;;5011359;28;20026;-64
2021/12/20 11:31:23;;;;;;;14.70;12.83;;;;;;;;;;5010183;28;20434;-63
2021/12/20 11:33:50;;;;;;;16.30;11.93;;;;;;;;;;5006232;28;20028;-63
2021/12/20 11:36:22;;;;;;;16.37;11.47;;;;;;;;;;5003978;28;20379;-63
2021/12/20 11:38:48;;;;;;;15.97;11.63;;;;;;;;;;5008541;28;20041;-63
2021/12/20 11:41:14;;;;;;;13.97;10.40;;;;;;;;;;5009166;28;20025;-63
2021/12/20 11:43:40;;;;;;;14.53;10.70;;;;;;;;;;5006041;28;20084;-62
2021/12/20 11:46:07;;;;;;;11.87;10.50;;;;;;;;;;5011292;28;20029;-63
2021/12/20 11:48:38;;;;;;;16.63;12.13;;;;;;;;;;5011752;28;20479;-62
2021/12/20 11:51:04;;;;;;;16.93;12.50;;;;;;;;;;5012170;28;20033;-62
2021/12/20 11:53:37;;;;;;;14.77;11.23;;;;;;;;;;5011774;28;20029;-62
2021/12/20 11:56:04;;;;;;;13.13;11.40;;;;;;;;;;5008631;28;20434;-61
2021/12/20 11:58:31;;;;;;;12.77;10.60;;;;;;;;;;5014868;28;20022;-61
2021/12/20 12:01:02;;;;;;;15.33;12.23;;;;;;;;;;5010602;28;20076;-62
2021/12/20 12:03:32;;;;;;;16.80;13.73;;;;;;;;;;5012079;28;20030;-62
2021/12/20 12:05:59;;;;;;;27.90;17.13;;;;;;;;;;5011184;28;20057;-62
2021/12/20 12:08:35;;;;;;;20.53;17.10;;;;;;;;;;5010362;28;20511;-62
2021/12/20 12:11:07;;;;;;;21.77;17.13;;;;;;;;;;5014561;28;20087;-61
2021/12/20 12:13:46;;;;;;;20.93;17.00;;;;;;;;;;5010910;28;20022;-63
2021/12/20 12:16:32;;;;;;;28.80;17.87;;;;;;;;;;5013225;28;20087;-62
2021/12/20 12:19:01;;;;;;;26.57;18.80;;;;;;;;;;5010248;28;20112;-62
2021/12/20 12:21:33;;;;;;;23.00;17.77;;;;;;;;;;5009514;28;20052;-62
2021/12/20 12:24:00;;;;;;;27.10;17.80;;;;;;;;;;5013460;28;20022;-62
2021/12/20 12:26:33;;;;;;;27.73;19.07;;;;;;;;;;5011982;28;20494;-62
2021/12/20 12:29:00;;;;;;;25.90;18.97;;;;;;;;;;5007407;28;20791;-62
2021/12/20 12:31:26;;;;;;;25.80;18.57;;;;;;;;;;5006634;28;20026;-62
2021/12/20 12:34:06;;;;;;;26.00;18.00;;;;;;;;;;5004299;28;20033;-62
2021/12/20 12:36:39;;;;;;;23.57;18.20;;;;;;;;;;5009306;28;20053;-63
2021/12/20 12:39:12;;;;;;;27.50;18.60;;;;;;;;;;5005409;28;20036;-63
2021/12/20 12:41:49;;;;;;;27.27;19.70;;;;;;;;;;5009530;28;20061;-63
2021/12/20 12:44:34;;;;;;;22.77;18.03;;;;;;;;;;4991081;28;20038;-63
2021/12/20 12:47:05;;;;;;;25.45;17.00;;;;;;;;;;5012412;28;20567;-63
2021/12/20 12:49:32;;;;;;;26.67;17.20;;;;;;;;;;5011829;28;20025;-63
2021/12/20 12:52:07;;;;;;;23.57;18.13;;;;;;;;;;5005316;28;20080;-63
2021/12/20 12:54:33;;;;;;;25.58;18.65;;;;;;;;;;4997044;28;20022;-64
2021/12/20 12:57:11;;;;;;;22.13;16.80;;;;;;;;;;5010711;28;20020;-64
2021/12/20 12:59:38;;;;;;;24.67;17.73;;;;;;;;;;5003920;28;20026;-64
2021/12/20 13:05:13;;;;;;;23.77;17.63;;;;;;;;;;5009559;28;20498;-64
2021/12/20 13:07:47;;;;;;;26.53;18.50;;;;;;;;;;5005998;28;20045;-63
2021/12/20 13:10:30;;;;;;;23.07;18.43;;;;;;;;;;5011303;28;20119;-64
2021/12/20 13:13:04;;;;;;;23.07;17.47;;;;;;;;;;5012120;28;20049;-63
2021/12/20 13:18:07;;;;;;;29.33;18.93;;;;;;;;;;5012023;28;20502;-63
2021/12/20 13:20:36;;;;;;;23.17;18.50;;;;;;;;;;5011130;28;20026;-63
2021/12/20 13:23:13;;;;;;;23.30;18.03;;;;;;;;;;5012440;28;20171;-63
2021/12/20 13:25:39;;;;;;;23.80;18.00;;;;;;;;;;5008582;28;20038;-63
2021/12/20 13:28:06;;;;;;;24.73;17.53;;;;;;;;;;5009794;28;20115;-63
2021/12/20 13:30:37;;;;;;;21.90;17.53;;;;;;;;;;5008170;28;20022;-63
2021/12/20 13:33:03;;;;;;;23.00;17.87;;;;;;;;;;5007966;28;20026;-64
2021/12/20 13:35:29;;;;;;;27.50;19.53;;;;;;;;;;5010663;28;20030;-64
2021/12/20 13:38:16;;;;;;;28.37;20.30;;;;;;;;;;5010110;28;20042;-63
2021/12/20 13:40:46;;;;;;;24.77;19.40;;;;;;;;;;5009690;28;20422;-64
2021/12/20 13:43:12;;;;;;;28.50;20.13;;;;;;;;;;5013211;28;20390;-64
2021/12/20 13:45:38;;;;;;;25.93;20.13;;;;;;;;;;5008243;28;20068;-64
2021/12/20 13:48:08;;;;;;;27.33;20.30;;;;;;;;;;5009890;28;20120;-63
2021/12/20 13:50:34;;;;;;;27.23;19.53;;;;;;;;;;5011850;28;20025;-64
2021/12/20 13:53:00;;;;;;;26.60;19.10;;;;;;;;;;5010938;28;20034;-64
2021/12/20 13:55:26;;;;;;;27.97;19.30;;;;;;;;;;5007200;28;20105;-64
2021/12/20 13:57:52;;;;;;;27.07;20.10;;;;;;;;;;5012199;28;20161;-63
2021/12/20 14:00:18;;;;;;;28.53;20.07;;;;;;;;;;5014153;28;20057;-64
2021/12/20 14:02:46;;;;;;;28.80;21.23;;;;;;;;;;5011928;28;20026;-64
2021/12/20 14:05:20;;;;;;;30.47;21.70;;;;;;;;;;5015367;28;20060;-64
2021/12/20 14:07:49;;;;;;;30.30;20.33;;;;;;;;;;5014280;28;20033;-63
2021/12/20 14:10:35;;;;;;;30.47;21.33;;;;;;;;;;5011590;28;20022;-63
2021/12/20 14:13:03;;;;;;;28.47;20.77;;;;;;;;;;5011435;28;20046;-63
2021/12/20 14:15:31;;;;;;;27.63;20.70;;;;;;;;;;5010547;28;20069;-63
2021/12/20 14:18:01;;;;;;;30.27;22.20;;;;;;;;;;5010327;28;20028;-63
2021/12/20 14:20:38;;;;;;;28.37;20.03;;;;;;;;;;5010108;28;20115;-63
2021/12/20 14:23:06;;;;;;;27.17;20.53;;;;;;;;;;5010065;28;20029;-63
2021/12/20 14:25:36;;;;;;;27.40;20.90;;;;;;;;;;5010330;28;20025;-63
2021/12/20 14:28:04;;;;;;;29.30;21.40;;;;;;;;;;5011492;28;20033;-63
2021/12/20 14:30:30;;;;;;;29.87;20.33;;;;;;;;;;5012372;28;20395;-63
2021/12/20 14:32:56;;;;;;;29.77;20.87;;;;;;;;;;5011065;28;20040;-62
2021/12/20 14:35:26;;;;;;;30.43;20.50;;;;;;;;;;5009968;28;20028;-63
2021/12/20 14:37:53;;;;;;;32.80;21.40;;;;;;;;;;5011491;28;20032;-63
2021/12/20 14:40:37;;;;;;;36.40;22.40;;;;;;;;;;5012846;28;20034;-63
2021/12/20 14:43:08;;;;;;;33.00;21.25;;;;;;;;;;5009800;28;20028;-63
2021/12/20 14:51:41;;;;;;;37.93;21.60;;;;;;;;;;5007276;28;20109;-63
2021/12/20 14:54:15;;;;;;;38.73;22.17;;;;;;;;;;5007118;28;20029;-63
2021/12/20 14:57:01;;;;;;;41.30;24.10;;;;;;;;;;5011389;28;20034;-63